Time;durP1;ratioP1;P1;durP2;ratioP2;P2;SDS_P1;SDS_P2;PMS_P1;PMS_P2;Temp;Humidity;BMP_temperature;BMP_pressure;BME280_temperature;BME280_humidity;BME280_pressure;Samples;Min_cycle;Max_cycle;Signal;HPM_P1;HPM_P2
2023/02/23 00:00:27;;;;;;;40.22;17.27;;;;;;;5.52;100.00;92596.34;2074010;28;20021;-82
2023/02/23 00:01:29;;;;;;;30.48;16.70;;;;;;;5.49;100.00;92605.84;2064650;28;20034;-82
2023/02/23 00:02:30;;;;;;;32.75;16.70;;;;;;;5.52;100.00;92602.38;2066845;28;20061;-83
2023/02/23 00:03:32;;;;;;;38.88;17.48;;;;;;;5.49;100.00;92603.19;2071898;28;20022;-82
2023/02/23 00:04:58;;;;;;;34.30;16.33;;;;;;;5.52;100.00;92602.38;2057707;28;20018;-83
2023/02/23 00:06:02;;;;;;;31.17;16.25;;;;;;;5.58;100.00;92597.41;2079138;28;20385;-82
2023/02/23 00:07:05;;;;;;;34.97;17.67;;;;;;;5.52;100.00;92594.44;2074196;28;20022;-82
2023/02/23 00:08:06;;;;;;;27.13;15.82;;;;;;;5.50;100.00;92596.75;2054742;28;20031;-83
2023/02/23 00:09:41;;;;;;;38.08;17.38;;;;;;;5.66;100.00;92596.16;2062040;28;20079;-82
2023/02/23 00:10:34;;;;;;;31.63;16.30;;;;;;;5.87;100.00;92600.47;2078492;28;20025;-82
2023/02/23 00:11:36;;;;;;;28.05;16.67;;;;;;;5.78;100.00;92594.91;2074505;28;20022;-82
2023/02/23 00:12:38;;;;;;;27.65;16.23;;;;;;;5.74;100.00;92591.53;2072207;28;20573;-82
2023/02/23 00:13:41;;;;;;;36.90;17.30;;;;;;;5.67;100.00;92603.00;2062079;28;20049;-83
2023/02/23 00:14:42;;;;;;;32.00;16.92;;;;;;;5.62;100.00;92597.34;2063486;28;20060;-83
2023/02/23 00:15:43;;;;;;;39.38;17.70;;;;;;;5.58;100.00;92601.97;2063839;28;20022;-81
2023/02/23 00:16:45;;;;;;;32.97;17.58;;;;;;;5.53;100.00;92593.31;2058312;28;20038;-83
2023/02/23 00:17:46;;;;;;;29.60;16.17;;;;;;;5.53;100.00;92613.72;2074128;28;20030;-83
2023/02/23 00:18:52;;;;;;;31.67;15.82;;;;;;;5.56;100.00;92605.75;2067248;28;20041;-83
2023/02/23 00:19:54;;;;;;;32.25;16.15;;;;;;;5.62;100.00;92606.09;2066314;28;20030;-82
2023/02/23 00:20:56;;;;;;;33.28;16.10;;;;;;;5.64;100.00;92605.69;2063933;28;20022;-83
2023/02/23 00:21:57;;;;;;;33.05;16.30;;;;;;;5.65;100.00;92604.53;2055429;28;20164;-83
2023/02/23 00:22:59;;;;;;;29.75;15.07;;;;;;;5.73;100.00;92604.03;2049864;28;20066;-81
2023/02/23 00:24:07;;;;;;;29.88;14.48;;;;;;;5.67;100.00;92607.53;2058135;28;20033;-83
2023/02/23 00:25:10;;;;;;;27.95;15.10;;;;;;;5.63;100.00;92601.53;2075151;28;20079;-82
2023/02/23 00:26:12;;;;;;;35.63;16.08;;;;;;;5.55;100.00;92604.25;2067158;28;20546;-83
2023/02/23 00:27:17;;;;;;;32.10;15.23;;;;;;;5.53;100.00;92605.78;2072032;28;20022;-82
2023/02/23 00:28:18;;;;;;;32.25;16.38;;;;;;;5.47;100.00;92600.16;2074769;28;20030;-82
2023/02/23 00:29:23;;;;;;;32.47;16.20;;;;;;;5.46;100.00;92603.97;2065829;28;20030;-82
2023/02/23 00:30:25;;;;;;;29.52;15.13;;;;;;;5.46;100.00;92597.94;2050935;28;20040;-82
2023/02/23 00:31:27;;;;;;;22.77;14.40;;;;;;;5.43;100.00;92602.09;2057829;28;20031;-81
2023/02/23 00:32:28;;;;;;;23.77;13.05;;;;;;;5.43;100.00;92599.47;2056503;28;20026;-82
2023/02/23 00:33:30;;;;;;;28.88;13.63;;;;;;;5.43;100.00;92593.41;2069764;28;20033;-83
2023/02/23 00:34:57;;;;;;;24.75;12.48;;;;;;;5.56;100.00;92586.44;2070737;28;20030;-82
2023/02/23 00:36:07;;;;;;;28.48;13.68;;;;;;;5.54;100.00;92583.44;2062878;28;20072;-83
2023/02/23 00:37:08;;;;;;;25.05;13.45;;;;;;;5.50;100.00;92588.03;2059981;28;20047;-83
2023/02/23 00:38:09;;;;;;;29.35;14.63;;;;;;;5.51;100.00;92595.59;2063903;28;20379;-83
2023/02/23 00:39:21;;;;;;;25.67;12.85;;;;;;;5.62;100.00;92589.41;2061496;28;20388;-83
2023/02/23 00:40:23;;;;;;;22.70;12.07;;;;;;;5.61;100.00;92593.22;2056086;28;20027;-82
2023/02/23 00:41:27;;;;;;;22.02;12.40;;;;;;;5.66;100.00;92595.41;2058030;28;20114;-82
2023/02/23 00:42:28;;;;;;;18.92;10.50;;;;;;;5.64;100.00;92593.16;2058296;28;20333;-83
2023/02/23 00:43:32;;;;;;;19.02;9.43;;;;;;;5.85;100.00;92594.81;2050506;28;20054;-82
2023/02/23 00:44:33;;;;;;;12.73;6.53;;;;;;;5.94;100.00;92595.13;2057566;28;20042;-82
2023/02/23 00:45:35;;;;;;;10.70;6.13;;;;;;;5.91;100.00;92601.19;2060502;28;20031;-82
2023/02/23 00:46:37;;;;;;;11.43;6.43;;;;;;;5.80;100.00;92598.66;2051917;28;20133;-82
2023/02/23 00:47:41;;;;;;;15.40;7.90;;;;;;;5.82;100.00;92598.25;2049844;28;20042;-82
2023/02/23 00:48:46;;;;;;;14.50;7.50;;;;;;;5.80;100.00;92593.38;2058577;28;20114;-82
2023/02/23 00:49:47;;;;;;;14.13;7.75;;;;;;;5.76;100.00;92594.56;2066074;28;20355;-82
2023/02/23 00:50:57;;;;;;;17.05;7.45;;;;;;;5.71;100.00;92598.41;2065479;28;20022;-82
2023/02/23 00:51:58;;;;;;;12.20;6.82;;;;;;;5.64;100.00;92603.03;2064763;28;20029;-83
2023/02/23 00:53:00;;;;;;;12.13;5.00;;;;;;;5.66;100.00;92590.88;2057781;28;20344;-83
2023/02/23 00:54:01;;;;;;;10.18;5.25;;;;;;;5.65;100.00;92592.00;2061058;28;20022;-82
2023/02/23 00:55:11;;;;;;;10.57;4.13;;;;;;;5.69;100.00;92602.59;2062950;28;20029;-82
2023/02/23 00:56:14;;;;;;;11.65;4.25;;;;;;;5.68;100.00;92595.78;2049671;28;20472;-82
2023/02/23 00:57:15;;;;;;;10.93;4.47;;;;;;;5.75;100.00;92601.00;2044750;28;20134;-82
2023/02/23 00:58:16;;;;;;;8.07;3.97;;;;;;;5.90;100.00;92593.63;2050291;28;20110;-82
2023/02/23 00:59:18;;;;;;;5.63;3.45;;;;;;;5.88;100.00;92598.56;2057715;28;20114;-83
2023/02/23 01:00:19;;;;;;;6.53;3.80;;;;;;;6.00;100.00;92598.06;2066096;28;20065;-82
2023/02/23 01:01:21;;;;;;;9.82;3.95;;;;;;;6.03;100.00;92592.72;2053291;28;20082;-81
2023/02/23 01:02:23;;;;;;;7.47;3.38;;;;;;;5.95;100.00;92591.31;2047802;28;20117;-82
2023/02/23 01:03:25;;;;;;;8.82;3.45;;;;;;;5.90;100.00;92594.38;2049791;28;20019;-82
2023/02/23 01:04:26;;;;;;;8.85;4.45;;;;;;;5.84;100.00;92590.69;2050450;28;20027;-82
2023/02/23 01:05:27;;;;;;;8.90;4.13;;;;;;;5.86;100.00;92595.56;2060180;28;20022;-82
2023/02/23 01:06:28;;;;;;;7.85;3.75;;;;;;;5.82;100.00;92590.31;2070318;28;20022;-82
2023/02/23 01:07:30;;;;;;;10.23;4.15;;;;;;;5.81;100.00;92591.47;2063280;28;20093;-82
2023/02/23 01:08:33;;;;;;;12.07;4.03;;;;;;;5.79;100.00;92583.91;2052686;28;20034;-82
2023/02/23 01:09:34;;;;;;;3.88;2.42;;;;;;;5.80;100.00;92587.31;2055186;28;20184;-82
2023/02/23 01:10:40;;;;;;;7.65;3.40;;;;;;;5.89;100.00;92581.53;2056241;28;20027;-82
2023/02/23 01:11:41;;;;;;;6.80;3.40;;;;;;;5.86;100.00;92583.06;2067031;28;20023;-82
2023/02/23 01:12:42;;;;;;;6.13;3.40;;;;;;;5.90;100.00;92585.66;2057379;28;20118;-82
2023/02/23 01:13:45;;;;;;;7.53;2.85;;;;;;;5.87;100.00;92584.56;2058037;28;20050;-82
2023/02/23 01:14:46;;;;;;;5.38;3.13;;;;;;;5.84;100.00;92577.41;2065937;28;20081;-82
2023/02/23 01:15:48;;;;;;;8.45;3.17;;;;;;;6.03;100.00;92581.34;2057593;28;20062;-83
2023/02/23 01:16:49;;;;;;;7.68;3.10;;;;;;;5.93;100.00;92585.66;2057924;28;20026;-82
2023/02/23 01:17:50;;;;;;;8.40;3.13;;;;;;;5.92;100.00;92586.78;2065346;28;20018;-82
2023/02/23 01:18:54;;;;;;;7.95;3.10;;;;;;;5.87;100.00;92591.75;2065473;28;20030;-83
2023/02/23 01:19:55;;;;;;;6.32;2.30;;;;;;;5.84;100.00;92584.59;2060199;28;20033;-83
2023/02/23 01:20:56;;;;;;;5.47;2.75;;;;;;;5.84;100.00;92588.03;2056907;28;20031;-82
2023/02/23 01:21:58;;;;;;;5.30;2.40;;;;;;;5.79;100.00;92583.91;2056958;28;20019;-82
2023/02/23 01:22:59;;;;;;;4.40;2.22;;;;;;;5.80;100.00;92592.63;2054882;28;20027;-81
2023/02/23 01:24:01;;;;;;;4.50;2.60;;;;;;;5.80;100.00;92588.06;2049404;28;20381;-82
2023/02/23 01:25:02;;;;;;;5.22;2.63;;;;;;;5.78;100.00;92582.38;2057124;28;20479;-82
2023/02/23 01:26:03;;;;;;;6.38;2.55;;;;;;;5.77;100.00;92585.44;2056427;28;20097;-82
2023/02/23 01:27:04;;;;;;;5.47;2.33;;;;;;;5.88;100.00;92588.69;2051767;28;20149;-82
2023/02/23 01:28:05;;;;;;;4.07;2.00;;;;;;;5.91;100.00;92585.25;2065653;28;20018;-82
2023/02/23 01:29:08;;;;;;;4.82;2.15;;;;;;;5.86;100.00;92587.63;2064964;28;20018;-82
2023/02/23 01:30:12;;;;;;;5.35;1.95;;;;;;;5.88;100.00;92578.09;2061004;28;20083;-82
2023/02/23 01:31:14;;;;;;;8.75;2.00;;;;;;;5.86;100.00;92583.06;2056232;28;20015;-81
2023/02/23 01:32:15;;;;;;;5.50;1.98;;;;;;;5.84;100.00;92590.69;2057404;28;20045;-83
2023/02/23 01:33:16;;;;;;;4.15;2.05;;;;;;;5.93;100.00;92587.56;2058994;28;20023;-82
2023/02/23 01:34:20;;;;;;;3.33;1.63;;;;;;;5.96;100.00;92581.44;2061885;28;20037;-82
2023/02/23 01:35:21;;;;;;;4.10;1.73;;;;;;;5.96;100.00;92584.09;2056844;28;20499;-82
2023/02/23 01:36:24;;;;;;;4.03;1.98;;;;;;;5.89;100.00;92584.19;2059231;28;20019;-82
2023/02/23 01:37:25;;;;;;;4.35;1.95;;;;;;;5.87;100.00;92579.25;2062268;28;20030;-82
2023/02/23 01:38:27;;;;;;;4.05;1.92;;;;;;;5.81;100.00;92578.19;2048922;28;20062;-83
2023/02/23 01:39:54;;;;;;;5.20;1.58;;;;;;;5.92;100.00;92583.38;2062926;28;20053;-83
2023/02/23 01:40:55;;;;;;;7.38;2.97;;;;;;;5.88;100.00;92582.66;2073052;28;20118;-82
2023/02/23 01:41:56;;;;;;;4.45;1.85;;;;;;;5.85;100.00;92575.50;2056642;28;20023;-82
2023/02/23 01:43:12;;;;;;;4.72;1.88;;;;;;;5.80;100.00;92579.34;2058913;28;20018;-84
2023/02/23 01:44:13;;;;;;;4.88;2.10;;;;;;;5.77;100.00;92575.59;2057306;28;20471;-82
2023/02/23 01:45:29;;;;;;;4.05;2.22;;;;;;;5.87;100.00;92579.25;2056894;28;20038;-84
2023/02/23 01:46:33;;;;;;;2.65;1.63;;;;;;;5.84;100.00;92577.41;2050814;28;20030;-82
2023/02/23 01:47:35;;;;;;;5.22;2.00;;;;;;;5.80;100.00;92571.41;2045151;28;20023;-83
2023/02/23 01:48:39;;;;;;;2.22;1.63;;;;;;;5.76;100.00;92576.00;2056895;28;20030;-83
2023/02/23 01:49:42;;;;;;;6.10;2.10;;;;;;;5.72;100.00;92575.28;2053838;28;20538;-82
2023/02/23 01:50:52;;;;;;;3.88;1.80;;;;;;;5.68;100.00;92577.22;2057989;28;20023;-82
2023/02/23 01:52:10;;;;;;;6.93;2.28;;;;;;;5.65;100.00;92573.47;2057077;28;20058;-82
2023/02/23 01:53:12;;;;;;;4.57;2.00;;;;;;;5.71;100.00;92573.78;2051897;28;20447;-82
2023/02/23 01:54:22;;;;;;;3.17;1.63;;;;;;;5.66;100.00;92572.31;2060170;28;20027;-82
2023/02/23 01:55:25;;;;;;;2.95;1.70;;;;;;;5.69;100.00;92568.13;2062986;28;20473;-83
2023/02/23 01:56:35;;;;;;;2.53;1.42;;;;;;;5.79;100.00;92572.53;2053550;28;20493;-82
2023/02/23 01:57:38;;;;;;;3.63;1.92;;;;;;;5.79;100.00;92567.22;2051686;28;20521;-83
2023/02/23 01:58:46;;;;;;;4.88;1.83;;;;;;;5.76;100.00;92568.03;2042777;28;20031;-82
2023/02/23 01:59:50;;;;;;;4.28;1.80;;;;;;;5.73;100.00;92576.78;2061805;28;20027;-81
2023/02/23 02:00:55;;;;;;;7.88;2.28;;;;;;;5.71;100.00;92576.44;2074176;28;20022;-84
2023/02/23 02:01:56;;;;;;;3.03;1.77;;;;;;;5.64;100.00;92571.22;2054145;28;20086;-82
2023/02/23 02:03:02;;;;;;;3.53;2.10;;;;;;;5.62;100.00;92576.16;2051583;28;20026;-82
2023/02/23 02:04:04;;;;;;;6.18;1.75;;;;;;;5.61;100.00;92572.00;2070692;28;20032;-82
2023/02/23 02:05:12;;;;;;;3.10;1.75;;;;;;;5.61;100.00;92569.34;2068418;28;20017;-82
2023/02/23 02:06:17;;;;;;;7.72;1.80;;;;;;;5.55;100.00;92579.66;2066158;28;20113;-83
2023/02/23 02:07:27;;;;;;;3.53;1.60;;;;;;;5.58;100.00;92572.81;2049975;28;20476;-82
2023/02/23 02:08:32;;;;;;;5.00;1.95;;;;;;;5.61;100.00;92572.75;2048569;28;20115;-84
2023/02/23 02:09:37;;;;;;;5.63;2.10;;;;;;;5.56;100.00;92573.19;2055258;28;20034;-83
2023/02/23 02:10:43;;;;;;;5.32;1.60;;;;;;;5.56;100.00;92573.94;2057918;28;20030;-82
2023/02/23 02:11:52;;;;;;;5.80;2.67;;;;;;;5.57;100.00;92572.03;2058229;28;20498;-82
2023/02/23 02:12:56;;;;;;;4.13;1.85;;;;;;;5.53;100.00;92569.44;2057106;28;20699;-83
2023/02/23 02:14:03;;;;;;;3.80;1.80;;;;;;;5.54;100.00;92570.19;2056105;28;20026;-82
2023/02/23 02:15:15;;;;;;;5.30;1.92;;;;;;;5.52;100.00;92565.28;2067564;28;20023;-82
2023/02/23 02:16:31;;;;;;;2.13;1.83;;;;;;;5.49;100.00;92570.63;2072793;28;20014;-83
2023/02/23 02:18:02;;;;;;;3.65;2.15;;;;;;;5.52;100.00;92567.94;2051153;28;20027;-83
2023/02/23 02:19:19;;;;;;;4.30;2.00;;;;;;;5.52;100.00;92575.13;2064346;28;20041;-83
2023/02/23 02:20:51;;;;;;;4.57;2.20;;;;;;;5.51;100.00;92561.13;2070618;28;20026;-83
2023/02/23 02:21:52;;;;;;;4.05;1.70;;;;;;;5.53;100.00;92566.78;2068927;28;20041;-83
2023/02/23 02:23:21;;;;;;;3.08;1.70;;;;;;;5.43;100.00;92570.31;2054758;28;20046;-82
2023/02/23 02:24:56;;;;;;;8.25;2.20;;;;;;;5.48;100.00;92559.25;2060299;28;20025;-83
2023/02/23 02:26:25;;;;;;;4.72;1.88;;;;;;;5.44;100.00;92561.19;2065182;28;20041;-82
2023/02/23 02:27:32;;;;;;;4.32;1.70;;;;;;;5.44;100.00;92557.81;2059288;28;20477;-83
2023/02/23 02:28:53;;;;;;;3.17;1.88;;;;;;;5.45;100.00;92562.72;2061520;28;20054;-82
2023/02/23 02:30:08;;;;;;;4.15;1.75;;;;;;;5.39;100.00;92558.25;2051510;28;20027;-84
2023/02/23 02:31:35;;;;;;;5.88;2.03;;;;;;;5.41;100.00;92554.06;2053258;28;20052;-82
2023/02/23 02:33:05;;;;;;;5.05;2.10;;;;;;;5.35;100.00;92557.53;2052385;28;20031;-83
2023/02/23 02:34:28;;;;;;;3.65;2.00;;;;;;;5.37;100.00;92553.34;2048762;28;20030;-83
2023/02/23 02:35:43;;;;;;;5.60;1.90;;;;;;;5.28;100.00;92558.38;2049987;28;20030;-83
2023/02/23 02:37:11;;;;;;;3.97;2.05;;;;;;;5.28;100.00;92553.06;2061231;28;20038;-82
2023/02/23 02:38:20;;;;;;;5.30;2.03;;;;;;;5.23;100.00;92556.16;2056691;28;20499;-82
2023/02/23 02:39:22;;;;;;;4.45;1.95;;;;;;;5.16;100.00;92556.22;2054333;28;20511;-83
2023/02/23 02:40:38;;;;;;;3.60;1.77;;;;;;;5.20;100.00;92559.59;2056833;28;20034;-83
2023/02/23 02:42:06;;;;;;;3.85;1.95;;;;;;;5.16;100.00;92553.56;2052676;28;20024;-83
2023/02/23 02:43:20;;;;;;;8.10;2.00;;;;;;;5.17;100.00;92550.53;2066057;28;20502;-82
2023/02/23 02:44:36;;;;;;;5.97;2.00;;;;;;;5.18;100.00;92553.91;2066669;28;20026;-82
2023/02/23 02:46:10;;;;;;;5.20;1.90;;;;;;;5.20;100.00;92549.75;2064614;28;20489;-83
2023/02/23 02:47:18;;;;;;;5.90;1.73;;;;;;;5.12;100.00;92550.22;2063571;28;20029;-83
2023/02/23 02:48:49;;;;;;;7.25;2.17;;;;;;;5.18;100.00;92553.91;2062789;28;20034;-82
2023/02/23 02:50:01;;;;;;;4.82;1.85;;;;;;;5.17;100.00;92560.38;2059864;28;20497;-83
2023/02/23 02:51:17;;;;;;;7.50;2.40;;;;;;;5.15;100.00;92557.38;2058214;28;20106;-83
2023/02/23 02:52:23;;;;;;;4.85;2.25;;;;;;;5.16;100.00;92548.28;2065649;28;20144;-83
2023/02/23 02:53:51;;;;;;;3.78;1.92;;;;;;;5.13;100.00;92557.00;2059379;28;20431;-82
2023/02/23 02:54:56;;;;;;;5.25;2.17;;;;;;;5.13;100.00;92555.09;2058790;28;20495;-82
2023/02/23 02:56:04;;;;;;;4.75;2.20;;;;;;;5.09;100.00;92556.28;2058994;28;20030;-81
2023/02/23 02:57:26;;;;;;;6.65;2.55;;;;;;;5.07;100.00;92556.69;2065149;28;20028;-83
2023/02/23 02:58:28;;;;;;;4.60;2.15;;;;;;;5.06;100.00;92552.53;2077013;28;20022;-83
2023/02/23 04:17:59;;;;;;;14.82;9.05;;;;;;;4.36;100.00;92560.72;2080712;28;20052;-83
2023/02/23 04:19:00;;;;;;;17.05;8.68;;;;;;;4.31;100.00;92552.47;2070082;28;20022;-84
2023/02/23 04:20:02;;;;;;;14.98;8.15;;;;;;;4.28;100.00;92553.97;2067789;28;20017;-82
2023/02/23 04:21:04;;;;;;;11.82;8.02;;;;;;;4.29;100.00;92558.13;2067567;28;20026;-82
2023/02/23 04:22:05;;;;;;;18.92;9.30;;;;;;;4.28;100.00;92554.72;2069967;28;20141;-83
2023/02/23 04:23:06;;;;;;;17.27;9.25;;;;;;;4.28;100.00;92556.63;2065639;28;20066;-82
2023/02/23 04:24:09;;;;;;;18.20;8.80;;;;;;;4.24;100.00;92553.25;2069888;28;20026;-82
2023/02/23 04:25:13;;;;;;;18.88;9.13;;;;;;;4.24;100.00;92556.63;2066154;28;20034;-84
2023/02/23 04:26:14;;;;;;;16.45;9.07;;;;;;;4.26;100.00;92558.91;2065443;28;20395;-83
2023/02/23 04:27:15;;;;;;;15.55;9.43;;;;;;;4.29;100.00;92555.47;2060321;28;20022;-82
2023/02/23 04:28:17;;;;;;;14.82;8.07;;;;;;;4.27;100.00;92563.06;2061697;28;20101;-84
2023/02/23 04:29:18;;;;;;;18.08;9.18;;;;;;;4.20;100.00;92553.25;2080198;28;20087;-83
2023/02/23 04:30:20;;;;;;;16.42;8.68;;;;;;;4.21;100.00;92554.00;2081919;28;20037;-82
2023/02/23 04:31:23;;;;;;;20.17;8.73;;;;;;;4.18;100.00;92560.84;2074024;28;20052;-82
2023/02/23 04:32:24;;;;;;;18.27;9.60;;;;;;;4.27;100.00;92555.13;2066177;28;20527;-82
2023/02/23 04:33:26;;;;;;;17.70;9.18;;;;;;;4.27;100.00;92555.13;2057745;28;20061;-84
2023/02/23 04:34:27;;;;;;;14.68;8.80;;;;;;;4.34;100.00;92554.31;2063221;28;20408;-82
2023/02/23 04:35:30;;;;;;;18.65;9.48;;;;;;;4.28;100.00;92557.38;2063942;28;20033;-82
2023/02/23 04:36:31;;;;;;;17.20;9.18;;;;;;;4.27;100.00;92553.22;2069317;28;20080;-83
2023/02/23 04:37:32;;;;;;;17.67;9.43;;;;;;;4.22;100.00;92566.13;2066416;28;20041;-82
2023/02/23 04:38:33;;;;;;;19.50;9.57;;;;;;;4.19;100.00;92558.94;2055368;28;20031;-82
2023/02/23 04:39:35;;;;;;;15.63;8.98;;;;;;;4.20;100.00;92563.84;2059037;28;20093;-83
2023/02/23 04:40:37;;;;;;;14.88;8.35;;;;;;;4.22;100.00;92563.47;2067181;28;20029;-82
2023/02/23 04:41:39;;;;;;;16.83;8.40;;;;;;;4.22;100.00;92564.22;2056540;28;20045;-84
2023/02/23 04:42:40;;;;;;;16.75;8.50;;;;;;;4.16;100.00;92560.47;2059705;28;20195;-83
2023/02/23 04:43:41;;;;;;;13.90;8.63;;;;;;;4.11;100.00;92562.78;2058225;28;20030;-83
2023/02/23 04:44:44;;;;;;;15.57;8.57;;;;;;;4.09;100.00;92560.53;2059354;28;20500;-83
2023/02/23 04:45:45;;;;;;;18.05;8.02;;;;;;;4.12;100.00;92566.91;2058749;28;20098;-83
2023/02/23 04:46:46;;;;;;;16.25;8.82;;;;;;;4.01;100.00;92564.34;2062537;28;20038;-82
2023/02/23 04:47:47;;;;;;;14.38;7.75;;;;;;;4.07;100.00;92560.16;2066777;28;20038;-83
2023/02/23 04:48:48;;;;;;;14.07;8.02;;;;;;;4.11;100.00;92565.44;2064302;28;20023;-82
2023/02/23 04:49:49;;;;;;;16.98;8.43;;;;;;;4.10;100.00;92559.38;2062787;28;20023;-83
2023/02/23 04:50:53;;;;;;;14.10;8.10;;;;;;;4.08;100.00;92566.19;2065707;28;20089;-82
2023/02/23 04:51:54;;;;;;;12.68;7.93;;;;;;;4.01;100.00;92567.75;2066857;28;20014;-83
2023/02/23 04:52:55;;;;;;;15.73;7.57;;;;;;;3.98;100.00;92568.50;2081755;28;20024;-83
2023/02/23 04:53:57;;;;;;;14.43;7.68;;;;;;;3.90;100.00;92564.41;2077254;28;20045;-82
2023/02/23 04:54:58;;;;;;;12.27;7.35;;;;;;;3.89;100.00;92564.81;2058622;28;20037;-83
2023/02/23 04:55:59;;;;;;;15.35;7.72;;;;;;;3.87;100.00;92565.19;2065699;28;20030;-82
2023/02/23 04:57:00;;;;;;;13.95;7.50;;;;;;;3.84;100.00;92565.97;2071775;28;20152;-83
2023/02/23 04:58:03;;;;;;;12.00;7.30;;;;;;;3.76;100.00;92569.78;2080587;28;20216;-82
2023/02/23 04:59:04;;;;;;;13.15;7.85;;;;;;;3.76;100.00;92564.50;2063005;28;20014;-84
2023/02/23 05:00:06;;;;;;;14.02;6.90;;;;;;;3.72;100.00;92564.50;2062096;28;20415;-82
2023/02/23 05:01:11;;;;;;;14.48;7.30;;;;;;;3.72;100.00;92563.75;2072250;28;20058;-85
2023/02/23 05:02:12;;;;;;;11.40;6.45;;;;;;;3.67;100.00;92564.91;2077556;28;20033;-82
2023/02/23 05:03:13;;;;;;;12.65;6.25;;;;;;;3.70;100.00;92563.41;2070041;28;20029;-82
2023/02/23 05:04:14;;;;;;;13.88;6.70;;;;;;;3.70;100.00;92566.03;2060629;28;20476;-82
2023/02/23 05:05:16;;;;;;;9.40;6.03;;;;;;;3.69;100.00;92567.19;2061257;28;20023;-82
2023/02/23 05:06:17;;;;;;;12.55;5.63;;;;;;;3.63;100.00;92560.78;2060030;28;20023;-82
2023/02/23 05:07:19;;;;;;;9.93;5.72;;;;;;;3.63;100.00;92566.06;2057594;28;20027;-82
2023/02/23 05:08:19;;;;;;;8.65;4.63;;;;;;;3.66;100.00;92562.66;2072329;28;20040;-82
2023/02/23 05:09:20;;;;;;;7.85;4.85;;;;;;;3.66;100.00;92567.94;2053302;28;20087;-82
2023/02/23 05:10:24;;;;;;;8.43;4.97;;;;;;;3.58;100.00;92559.28;2055128;28;20067;-82
2023/02/23 05:11:26;;;;;;;7.40;4.80;;;;;;;3.57;100.00;92557.78;2053636;28;20089;-82
2023/02/23 05:12:27;;;;;;;8.70;4.60;;;;;;;3.59;100.00;92560.03;2054183;28;20027;-83
2023/02/23 05:13:28;;;;;;;7.70;4.63;;;;;;;3.54;100.00;92561.94;2073359;28;20018;-83
2023/02/23 05:14:29;;;;;;;11.48;5.03;;;;;;;3.53;100.00;92563.09;2070269;28;20057;-82
2023/02/23 05:15:30;;;;;;;7.55;4.10;;;;;;;3.47;100.00;92554.06;2072165;28;20823;-83
2023/02/23 05:16:31;;;;;;;7.95;4.95;;;;;;;3.43;100.00;92561.25;2066690;28;20467;-83
2023/02/23 05:17:32;;;;;;;9.25;4.90;;;;;;;3.49;100.00;92557.06;2055866;28;20022;-83
2023/02/23 05:18:35;;;;;;;7.47;4.20;;;;;;;3.40;100.00;92555.97;2060985;28;20040;-82
2023/02/23 05:19:36;;;;;;;6.18;4.68;;;;;;;3.42;100.00;92566.91;2068618;28;20033;-82
2023/02/23 05:20:37;;;;;;;9.13;4.93;;;;;;;3.41;100.00;92557.47;2074160;28;20084;-83
2023/02/23 05:21:40;;;;;;;8.95;4.30;;;;;;;3.39;100.00;92563.16;2071767;28;20072;-84
2023/02/23 05:22:42;;;;;;;7.80;4.28;;;;;;;3.39;100.00;92565.03;2066603;28;20026;-83
2023/02/23 05:23:44;;;;;;;12.90;5.25;;;;;;;3.33;100.00;92563.91;2079013;28;20610;-82
2023/02/23 05:24:45;;;;;;;6.82;4.30;;;;;;;3.24;100.00;92565.06;2071402;28;20057;-83
2023/02/23 05:25:46;;;;;;;8.70;4.35;;;;;;;3.27;100.00;92561.69;2073885;28;20018;-85
2023/02/23 05:26:48;;;;;;;7.90;4.30;;;;;;;3.26;100.00;92565.47;2055032;28;20019;-82
2023/02/23 05:27:49;;;;;;;6.32;4.05;;;;;;;3.19;100.00;92567.38;2058439;28;20027;-82
2023/02/23 05:28:50;;;;;;;7.13;4.20;;;;;;;3.15;100.00;92567.38;2057511;28;20099;-82
2023/02/23 05:29:52;;;;;;;6.47;4.30;;;;;;;3.10;100.00;92567.75;2061435;28;20721;-81
2023/02/23 05:30:53;;;;;;;5.75;4.13;;;;;;;3.13;100.00;92566.25;2065424;28;20077;-81
2023/02/23 05:31:54;;;;;;;9.95;4.15;;;;;;;3.16;100.00;92562.84;2074714;28;20053;-82
2023/02/23 05:32:55;;;;;;;8.15;4.18;;;;;;;3.16;100.00;92566.25;2073796;28;20022;-82
2023/02/23 05:34:11;;;;;;;7.97;4.60;;;;;;;3.14;100.00;92563.22;2064343;28;20027;-82
2023/02/23 05:35:12;;;;;;;12.77;7.78;;;;;;;3.13;100.00;92569.66;2070054;28;20010;-82
2023/02/23 05:36:16;;;;;;;13.73;8.45;;;;;;;3.14;100.00;92565.13;2064845;28;20038;-81
2023/02/23 05:37:17;;;;;;;12.20;7.57;;;;;;;3.20;100.00;92568.88;2059486;28;20090;-82
2023/02/23 05:38:20;;;;;;;9.82;7.15;;;;;;;3.19;100.00;92567.38;2066216;28;20032;-82
2023/02/23 05:39:21;;;;;;;11.70;7.10;;;;;;;3.22;100.00;92563.97;2073946;28;20564;-82
2023/02/23 05:40:22;;;;;;;8.02;5.82;;;;;;;3.28;100.00;92562.44;2078251;28;20021;-82
2023/02/23 05:41:24;;;;;;;10.13;5.93;;;;;;;3.32;100.00;92563.16;2059924;28;20117;-82
2023/02/23 05:42:25;;;;;;;10.40;5.28;;;;;;;3.32;100.00;92565.81;2059540;28;20018;-82
2023/02/23 05:43:26;;;;;;;11.05;5.40;;;;;;;3.34;100.00;92568.09;2057056;28;20038;-82
2023/02/23 05:44:27;;;;;;;6.82;4.50;;;;;;;3.40;100.00;92569.19;2057406;28;20056;-82
2023/02/23 05:45:28;;;;;;;11.30;5.15;;;;;;;3.41;100.00;92565.41;2065461;28;20089;-81
2023/02/23 05:46:29;;;;;;;9.35;4.80;;;;;;;3.42;100.00;92559.72;2067234;28;20026;-82
2023/02/23 05:47:31;;;;;;;7.53;5.07;;;;;;;3.42;100.00;92559.72;2071345;28;20477;-83
2023/02/23 05:48:32;;;;;;;11.70;6.47;;;;;;;3.44;100.00;92564.66;2062709;28;20022;-82
2023/02/23 05:49:33;;;;;;;8.80;5.18;;;;;;;3.46;100.00;92565.75;2074374;28;20017;-83
2023/02/23 05:50:35;;;;;;;9.93;5.55;;;;;;;3.47;100.00;92564.63;2056806;28;20023;-83
2023/02/23 05:51:36;;;;;;;10.02;5.20;;;;;;;3.55;100.00;92562.69;2066773;28;20025;-81
2023/02/23 05:52:40;;;;;;;8.88;5.95;;;;;;;3.54;100.00;92563.84;2062424;28;20635;-82
2023/02/23 05:53:42;;;;;;;10.50;6.22;;;;;;;3.51;100.00;92562.72;2057983;28;20731;-83
2023/02/23 05:54:45;;;;;;;10.35;7.95;;;;;;;3.53;100.00;92559.69;2072222;28;20018;-83
2023/02/23 05:55:46;;;;;;;10.68;7.05;;;;;;;3.60;100.00;92561.53;2071252;28;20072;-83
2023/02/23 05:56:47;;;;;;;10.70;6.88;;;;;;;3.62;100.00;92565.31;2055508;28;20077;-82
2023/02/23 05:57:49;;;;;;;9.98;6.90;;;;;;;3.64;100.00;92564.91;2054262;28;20648;-82
2023/02/23 05:58:53;;;;;;;10.65;6.95;;;;;;;3.70;100.00;92566.03;2059376;28;20068;-82
2023/02/23 05:59:54;;;;;;;14.35;7.55;;;;;;;3.82;100.00;92562.97;2046291;28;20078;-81
2023/02/23 06:00:55;;;;;;;10.00;6.68;;;;;;;3.86;100.00;92566.31;2043238;28;20034;-82
2023/02/23 06:01:56;;;;;;;15.63;7.70;;;;;;;3.83;100.00;92566.34;2064327;28;20057;-82
2023/02/23 06:02:57;;;;;;;12.30;8.27;;;;;;;3.80;100.00;92567.88;2064208;28;20033;-82
2023/02/23 06:03:58;;;;;;;13.15;8.35;;;;;;;3.84;100.00;92565.97;2072315;28;20033;-81
2023/02/23 06:04:59;;;;;;;14.98;8.23;;;;;;;3.84;100.00;92568.59;2061256;28;20023;-82
2023/02/23 06:06:00;;;;;;;17.33;9.73;;;;;;;3.84;100.00;92565.97;2064591;28;20156;-81
2023/02/23 06:07:02;;;;;;;17.08;9.30;;;;;;;3.84;100.00;92562.56;2056627;28;20026;-82
2023/02/23 06:08:03;;;;;;;13.73;9.25;;;;;;;3.87;100.00;92575.03;2063680;28;20721;-83
2023/02/23 06:09:04;;;;;;;16.27;8.27;;;;;;;3.88;100.00;92569.34;2062979;28;20018;-82
2023/02/23 06:10:06;;;;;;;14.93;8.10;;;;;;;3.88;100.00;92573.88;2077386;28;20108;-83
2023/02/23 06:11:07;;;;;;;12.73;7.55;;;;;;;3.91;100.00;92571.22;2064915;28;20057;-82
2023/02/23 06:12:09;;;;;;;13.32;7.75;;;;;;;3.90;100.00;92569.69;2064847;28;20030;-82
2023/02/23 06:13:10;;;;;;;15.93;8.07;;;;;;;3.86;100.00;92576.88;2064854;28;20056;-82
2023/02/23 06:14:12;;;;;;;13.98;8.13;;;;;;;3.81;100.00;92573.91;2057147;28;20050;-82
2023/02/23 06:15:13;;;;;;;14.73;7.60;;;;;;;3.78;100.00;92568.25;2072718;28;20033;-83
2023/02/23 06:16:15;;;;;;;14.88;8.95;;;;;;;3.79;100.00;92569.75;2057400;28;20050;-83
2023/02/23 06:17:16;;;;;;;16.65;8.32;;;;;;;3.76;100.00;92572.41;2065972;28;20133;-82
2023/02/23 06:18:17;;;;;;;14.50;9.13;;;;;;;3.73;100.00;92583.75;2065345;28;20325;-81
2023/02/23 06:19:18;;;;;;;14.05;8.73;;;;;;;3.71;100.00;92576.22;2073082;28;20520;-82
2023/02/23 06:20:19;;;;;;;16.27;8.57;;;;;;;3.68;100.00;92576.97;2072817;28;20109;-82
2023/02/23 06:21:21;;;;;;;15.43;8.73;;;;;;;3.70;100.00;92580.00;2072431;28;20827;-82